Time;durP1;ratioP1;P1;durP2;ratioP2;P2;SDS_P1;SDS_P2;PMS_P1;PMS_P2;Temp;Humidity;BMP_temperature;BMP_pressure;BME280_temperature;BME280_humidity;BME280_pressure;Samples;Min_cycle;Max_cycle;Signal;HPM_P1;HPM_P2
2022/02/23 00:01:38;;;;;;;0.40;0.20;;;8.60;99.90;;;;;;4975342;28;20451;-69
2022/02/23 00:04:04;;;;;;;0.40;0.28;;;8.60;99.90;;;;;;4974097;28;20896;-70
2022/02/23 00:06:30;;;;;;;0.40;0.20;;;8.60;99.90;;;;;;4992100;28;20899;-68
2022/02/23 00:08:56;;;;;;;0.40;0.20;;;8.70;99.90;;;;;;4974963;28;20485;-68
2022/02/23 00:11:22;;;;;;;0.40;0.20;;;8.70;99.90;;;;;;4991112;28;20517;-69
2022/02/23 00:13:47;;;;;;;0.40;0.20;;;8.70;99.90;;;;;;4992147;28;20394;-68
2022/02/23 00:16:13;;;;;;;0.40;0.20;;;8.70;99.90;;;;;;4991555;28;20379;-70
2022/02/23 00:18:39;;;;;;;0.40;0.20;;;8.70;99.90;;;;;;4992222;28;20870;-70
2022/02/23 00:21:04;;;;;;;0.40;0.20;;;8.70;99.90;;;;;;4991930;28;20426;-69
2022/02/23 00:23:30;;;;;;;0.80;0.60;;;8.70;99.90;;;;;;4973611;28;20405;-68
2022/02/23 00:25:56;;;;;;;0.40;0.20;;;8.70;99.90;;;;;;4992123;28;20401;-69
2022/02/23 00:28:21;;;;;;;0.40;0.20;;;8.70;99.90;;;;;;4973425;28;20486;-68
2022/02/23 00:30:47;;;;;;;0.40;0.20;;;8.70;99.90;;;;;;4992025;28;20390;-68
2022/02/23 00:33:13;;;;;;;0.40;0.20;;;8.80;99.90;;;;;;4991656;28;20390;-68
2022/02/23 00:35:39;;;;;;;0.40;0.20;;;8.70;99.90;;;;;;4991069;28;21049;-68
2022/02/23 00:38:04;;;;;;;0.40;0.20;;;8.70;99.90;;;;;;4991738;28;20390;-69
2022/02/23 00:40:30;;;;;;;1.10;0.80;;;8.80;99.90;;;;;;4991150;28;20394;-68
2022/02/23 00:42:57;;;;;;;0.40;0.20;;;8.80;99.90;;;;;;4991424;28;20421;-68
2022/02/23 00:45:23;;;;;;;0.40;0.20;;;8.80;99.90;;;;;;4992020;28;20383;-68
2022/02/23 00:47:49;;;;;;;0.40;0.20;;;8.80;99.90;;;;;;4991592;28;20381;-69
2022/02/23 00:50:15;;;;;;;0.40;0.20;;;8.80;99.90;;;;;;4992420;28;20386;-68
2022/02/23 00:52:41;;;;;;;0.40;0.20;;;8.80;99.90;;;;;;4990959;28;20434;-69
2022/02/23 00:55:07;;;;;;;0.40;0.20;;;8.80;99.90;;;;;;4991753;28;20394;-70
2022/02/23 00:57:33;;;;;;;0.40;0.20;;;8.80;99.90;;;;;;4992360;28;20396;-70
2022/02/23 00:59:59;;;;;;;0.40;0.20;;;8.70;99.90;;;;;;4990883;28;20394;-69
2022/02/23 01:02:25;;;;;;;0.40;0.30;;;8.60;99.90;;;;;;4991268;28;20442;-69
2022/02/23 01:04:51;;;;;;;0.40;0.20;;;8.60;99.90;;;;;;4990978;28;20387;-69
2022/02/23 01:07:17;;;;;;;0.40;0.20;;;8.60;99.90;;;;;;4991319;28;20393;-70
2022/02/23 01:09:42;;;;;;;0.40;0.30;;;8.70;99.90;;;;;;4991707;28;20432;-70
2022/02/23 01:12:08;;;;;;;0.40;0.20;;;8.70;99.90;;;;;;4973186;28;20426;-70
2022/02/23 01:14:34;;;;;;;0.40;0.20;;;8.70;99.90;;;;;;4991694;28;20394;-69
2022/02/23 01:17:00;;;;;;;0.40;0.20;;;8.70;99.90;;;;;;4990565;28;20469;-69
2022/02/23 01:19:25;;;;;;;0.40;0.20;;;8.70;99.90;;;;;;4991194;28;20393;-69
2022/02/23 01:21:51;;;;;;;0.40;0.20;;;8.70;99.90;;;;;;4991458;28;20509;-69
2022/02/23 01:24:18;;;;;;;0.40;0.20;;;8.70;99.90;;;;;;4990762;28;20403;-69
2022/02/23 01:26:43;;;;;;;0.40;0.20;;;8.70;99.90;;;;;;4991402;28;20718;-70
2022/02/23 01:29:09;;;;;;;0.40;0.20;;;8.80;99.90;;;;;;4990308;28;20382;-68
2022/02/23 01:31:35;;;;;;;0.40;0.20;;;8.70;99.90;;;;;;4991121;28;20481;-68
2022/02/23 01:34:01;;;;;;;0.40;0.20;;;8.80;99.90;;;;;;4990811;28;20383;-68
2022/02/23 01:36:26;;;;;;;0.40;0.20;;;8.80;99.90;;;;;;4973021;28;20390;-68
2022/02/23 01:38:52;;;;;;;0.40;0.20;;;8.80;99.90;;;;;;4990400;28;20394;-68
2022/02/23 01:41:19;;;;;;;0.40;0.20;;;8.80;99.90;;;;;;4990254;28;20460;-68
2022/02/23 01:43:46;;;;;;;0.40;0.20;;;8.80;99.90;;;;;;4991064;28;20393;-68
2022/02/23 01:46:12;;;;;;;0.40;0.30;;;8.80;99.90;;;;;;4973494;28;20528;-68
2022/02/23 01:48:38;;;;;;;0.40;0.20;;;8.80;99.90;;;;;;4990738;28;20418;-68
2022/02/23 01:51:04;;;;;;;0.40;0.20;;;8.80;99.90;;;;;;4990857;28;20429;-68
2022/02/23 01:53:29;;;;;;;0.40;0.20;;;8.80;99.90;;;;;;4990097;28;20480;-68
2022/02/23 01:55:55;;;;;;;0.40;0.20;;;8.80;99.90;;;;;;4973757;28;20401;-68
2022/02/23 01:58:21;;;;;;;0.40;0.20;;;8.90;99.90;;;;;;4990910;28;20711;-68
2022/02/23 02:00:47;;;;;;;0.40;0.20;;;8.90;99.90;;;;;;4990125;28;20482;-69
2022/02/23 02:03:12;;;;;;;0.60;0.60;;;8.90;99.90;;;;;;4990857;28;20467;-69
2022/02/23 02:05:38;;;;;;;0.40;0.20;;;8.80;99.90;;;;;;4973163;28;20403;-69
2022/02/23 02:08:04;;;;;;;0.40;0.20;;;8.90;99.90;;;;;;4973781;28;20477;-69
2022/02/23 02:10:30;;;;;;;0.40;0.20;;;8.80;99.90;;;;;;4973559;28;20698;-69
2022/02/23 02:12:55;;;;;;;0.40;0.20;;;8.90;99.90;;;;;;4990328;28;20621;-69
2022/02/23 02:15:21;;;;;;;0.40;0.30;;;8.80;99.90;;;;;;4991491;28;20394;-69
2022/02/23 02:17:47;;;;;;;0.40;0.20;;;8.90;99.90;;;;;;4990316;28;20378;-69
2022/02/23 02:20:12;;;;;;;0.40;0.20;;;8.90;99.90;;;;;;4990761;28;20383;-69
2022/02/23 02:22:38;;;;;;;0.40;0.20;;;8.90;99.90;;;;;;4990923;28;20421;-69
2022/02/23 02:25:05;;;;;;;0.40;0.20;;;8.90;99.90;;;;;;4990215;28;20390;-69
2022/02/23 02:27:30;;;;;;;0.40;0.20;;;8.80;99.90;;;;;;4991206;28;20394;-69
2022/02/23 02:29:56;;;;;;;0.40;0.22;;;8.80;99.90;;;;;;4990209;28;20445;-69
2022/02/23 02:32:22;;;;;;;0.40;0.30;;;8.80;99.90;;;;;;4990832;28;20425;-69
2022/02/23 02:34:48;;;;;;;0.40;0.40;;;8.80;99.90;;;;;;4990928;28;20386;-69
2022/02/23 02:37:15;;;;;;;0.40;0.20;;;8.90;99.90;;;;;;4990016;28;21057;-69
2022/02/23 02:39:41;;;;;;;0.40;0.20;;;8.80;99.90;;;;;;4990664;28;20398;-69
2022/02/23 02:42:07;;;;;;;3.90;0.80;;;8.80;99.90;;;;;;4989950;28;20417;-69
2022/02/23 02:44:33;;;;;;;0.40;0.20;;;8.80;99.90;;;;;;4990906;28;20386;-69
2022/02/23 02:46:59;;;;;;;0.40;0.20;;;8.80;99.90;;;;;;4973547;28;20715;-69
2022/02/23 02:49:25;;;;;;;0.40;0.22;;;8.80;99.90;;;;;;4989973;28;20467;-69
2022/02/23 02:51:52;;;;;;;0.40;0.20;;;8.80;99.90;;;;;;4990937;28;20501;-69
2022/02/23 02:54:18;;;;;;;0.40;0.20;;;8.80;99.90;;;;;;4989698;28;20398;-68
2022/02/23 02:56:43;;;;;;;0.60;0.60;;;8.80;99.90;;;;;;4990515;28;20410;-69
2022/02/23 02:59:09;;;;;;;0.40;0.20;;;8.80;99.90;;;;;;4990778;28;20414;-69
2022/02/23 03:01:36;;;;;;;0.40;0.20;;;8.90;99.90;;;;;;4989498;28;20406;-68
2022/02/23 03:04:03;;;;;;;0.40;0.20;;;8.80;99.90;;;;;;4990416;28;20421;-68
2022/02/23 03:06:28;;;;;;;0.40;0.20;;;8.80;99.90;;;;;;4993658;28;20437;-69
2022/02/23 03:08:55;;;;;;;0.40;0.20;;;8.80;99.90;;;;;;4976919;28;20398;-68
2022/02/23 03:11:22;;;;;;;0.40;0.20;;;8.80;99.90;;;;;;4994154;28;20414;-68
2022/02/23 03:13:48;;;;;;;0.40;0.20;;;8.80;99.90;;;;;;4976380;28;20386;-68
2022/02/23 03:16:15;;;;;;;0.40;0.20;;;8.80;99.90;;;;;;4994016;28;20386;-68
2022/02/23 03:18:41;;;;;;;0.40;0.30;;;8.70;99.90;;;;;;4993184;28;20383;-68
2022/02/23 03:21:07;;;;;;;0.40;0.30;;;8.70;99.90;;;;;;4994042;28;20441;-69
2022/02/23 03:23:34;;;;;;;0.40;0.20;;;8.70;99.90;;;;;;4993009;28;20870;-69
2022/02/23 03:26:00;;;;;;;0.40;0.20;;;8.70;99.90;;;;;;4994125;28;20440;-68
2022/02/23 03:28:26;;;;;;;0.40;0.20;;;8.60;99.90;;;;;;4993963;28;20382;-68
2022/02/23 03:30:52;;;;;;;0.40;0.30;;;8.60;99.90;;;;;;4975807;28;20398;-68
2022/02/23 03:33:18;;;;;;;0.40;0.20;;;8.70;99.90;;;;;;4994015;28;20391;-68
2022/02/23 03:35:45;;;;;;;0.40;0.20;;;8.60;99.90;;;;;;4993206;28;20394;-68
2022/02/23 03:38:11;;;;;;;0.40;0.20;;;8.60;99.90;;;;;;4993653;28;20410;-68
2022/02/23 03:40:38;;;;;;;1.60;1.00;;;8.70;99.90;;;;;;4993537;28;20477;-68
2022/02/23 03:43:04;;;;;;;0.40;0.20;;;8.70;99.90;;;;;;4992853;28;20429;-69
2022/02/23 03:45:30;;;;;;;0.40;0.20;;;8.70;99.90;;;;;;4993835;28;20442;-69
2022/02/23 03:47:56;;;;;;;0.40;0.20;;;8.70;99.90;;;;;;4992742;28;20406;-70
2022/02/23 03:50:22;;;;;;;0.40;0.20;;;8.70;99.90;;;;;;4993663;28;20387;-69
2022/02/23 03:52:48;;;;;;;0.40;0.20;;;8.60;99.90;;;;;;4993696;28;20475;-70
2022/02/23 03:55:14;;;;;;;0.40;0.20;;;8.60;99.90;;;;;;4992497;28;21187;-69
2022/02/23 03:57:40;;;;;;;0.40;0.20;;;8.50;99.90;;;;;;4993636;28;20410;-69
2022/02/23 04:00:09;;;;;;;0.40;0.30;;;8.50;99.90;;;;;;4992559;28;20375;-69
2022/02/23 04:02:34;;;;;;;0.40;0.20;;;8.50;99.90;;;;;;4993296;28;20461;-69
2022/02/23 04:05:00;;;;;;;0.40;0.20;;;8.50;99.90;;;;;;4975811;28;20405;-69
2022/02/23 04:07:27;;;;;;;0.40;0.20;;;8.50;99.90;;;;;;4992258;28;20374;-69
2022/02/23 04:09:53;;;;;;;0.40;0.20;;;8.50;99.90;;;;;;4975900;28;20397;-69
2022/02/23 04:12:19;;;;;;;0.40;0.20;;;8.50;99.90;;;;;;4958798;28;20414;-68
2022/02/23 04:14:46;;;;;;;0.40;0.20;;;8.50;99.90;;;;;;4975937;28;20391;-69
2022/02/23 04:17:11;;;;;;;0.40;0.38;;;8.60;99.90;;;;;;4974268;28;20894;-69
2022/02/23 04:19:37;;;;;;;0.40;0.30;;;8.60;99.90;;;;;;4991458;28;20406;-69
2022/02/23 04:22:04;;;;;;;0.40;0.20;;;8.60;99.90;;;;;;4987087;28;20480;-69
2022/02/23 04:24:30;;;;;;;0.40;0.20;;;8.50;99.90;;;;;;4951353;28;20451;-69
2022/02/23 04:26:56;;;;;;;0.40;0.20;;;8.50;99.90;;;;;;4989989;28;20461;-69
2022/02/23 04:29:22;;;;;;;0.40;0.20;;;8.40;99.90;;;;;;4991177;28;20382;-69
2022/02/23 04:31:48;;;;;;;0.40;0.20;;;8.50;99.90;;;;;;4989400;28;20735;-69
2022/02/23 04:34:14;;;;;;;0.40;0.20;;;8.50;99.90;;;;;;4989829;28;20489;-69
2022/02/23 04:36:40;;;;;;;0.40;0.22;;;8.50;99.90;;;;;;4990336;28;20852;-68
2022/02/23 04:39:06;;;;;;;0.50;0.40;;;8.50;99.90;;;;;;4987177;28;20406;-69
2022/02/23 04:41:31;;;;;;;0.60;0.60;;;8.50;99.90;;;;;;4985157;28;20422;-69
2022/02/23 04:43:57;;;;;;;0.40;0.20;;;8.50;99.90;;;;;;4990753;28;20401;-69
2022/02/23 04:46:24;;;;;;;0.40;0.20;;;8.50;99.90;;;;;;4997604;28;20982;-70
2022/02/23 04:48:50;;;;;;;0.40;0.20;;;8.50;99.90;;;;;;4992339;28;20422;-70
2022/02/23 04:51:16;;;;;;;0.40;0.30;;;8.60;99.90;;;;;;4996416;28;20490;-70
2022/02/23 04:53:43;;;;;;;0.40;0.20;;;8.70;99.90;;;;;;4998892;28;20392;-69
2022/02/23 04:56:09;;;;;;;0.40;0.20;;;8.70;99.90;;;;;;4987795;28;20461;-69
2022/02/23 04:58:36;;;;;;;0.40;0.20;;;8.70;99.90;;;;;;4974716;28;20419;-69
2022/02/23 05:01:02;;;;;;;0.40;0.20;;;8.70;99.90;;;;;;4984197;28;20402;-69
2022/02/23 05:03:28;;;;;;;0.40;0.40;;;8.80;99.90;;;;;;4992429;28;20387;-69
2022/02/23 05:05:54;;;;;;;0.40;0.30;;;8.80;99.90;;;;;;4991727;28;20390;-69
2022/02/23 05:08:20;;;;;;;0.40;0.20;;;8.80;99.90;;;;;;4992333;28;20441;-70
2022/02/23 05:10:46;;;;;;;0.40;0.20;;;8.80;99.90;;;;;;4992209;28;20471;-69
2022/02/23 05:13:13;;;;;;;0.40;0.30;;;8.70;99.90;;;;;;4991503;28;20383;-69
2022/02/23 05:15:39;;;;;;;0.40;0.20;;;8.70;99.90;;;;;;4992353;28;20379;-70
2022/02/23 05:18:06;;;;;;;0.40;0.20;;;8.70;99.90;;;;;;4991706;28;20386;-70
2022/02/23 05:20:32;;;;;;;0.40;0.30;;;8.70;99.90;;;;;;4974896;28;20407;-69
2022/02/23 05:22:57;;;;;;;0.40;0.20;;;8.70;99.90;;;;;;4992067;28;20418;-69
2022/02/23 05:25:24;;;;;;;0.40;0.20;;;8.80;99.90;;;;;;4991388;28;20394;-68
2022/02/23 05:27:50;;;;;;;0.40;0.20;;;8.80;99.90;;;;;;4991970;28;20399;-69
2022/02/23 05:30:15;;;;;;;0.40;0.30;;;8.80;99.90;;;;;;4991525;28;20414;-69
2022/02/23 05:32:42;;;;;;;0.40;0.20;;;8.70;99.90;;;;;;4992165;28;20398;-68
2022/02/23 05:35:09;;;;;;;0.77;0.75;;;8.50;99.90;;;;;;4992169;28;20386;-68
2022/02/23 05:37:35;;;;;;;0.40;0.20;;;8.60;99.90;;;;;;4991588;28;20450;-68
2022/02/23 05:40:02;;;;;;;0.40;0.20;;;8.50;99.90;;;;;;4991956;28;20387;-67
2022/02/23 05:42:28;;;;;;;0.40;0.20;;;8.50;99.90;;;;;;4973722;28;20414;-68
2022/02/23 05:44:54;;;;;;;0.40;0.40;;;8.50;99.90;;;;;;4992022;28;20386;-69
2022/02/23 05:47:20;;;;;;;0.40;0.40;;;8.50;99.90;;;;;;4974087;28;20468;-69
2022/02/23 05:49:45;;;;;;;0.40;0.20;;;8.40;99.90;;;;;;4991584;28;20390;-69
2022/02/23 05:52:13;;;;;;;0.40;0.20;;;8.40;99.90;;;;;;4974318;28;20895;-69
2022/02/23 05:54:40;;;;;;;0.40;0.30;;;8.40;99.90;;;;;;4990992;28;20379;-69
2022/02/23 05:57:05;;;;;;;0.40;0.20;;;8.40;99.90;;;;;;4991631;28;20746;-69
2022/02/23 05:59:31;;;;;;;1.40;1.30;;;8.30;99.90;;;;;;4990954;28;20469;-69
2022/02/23 06:01:57;;;;;;;0.40;0.20;;;8.30;99.90;;;;;;4972120;28;20821;-68
2022/02/23 06:04:22;;;;;;;0.40;0.20;;;8.40;99.90;;;;;;4972575;28;20857;-70
2022/02/23 06:06:48;;;;;;;0.40;0.20;;;8.40;99.90;;;;;;4954055;28;20388;-69
2022/02/23 06:09:14;;;;;;;0.40;0.20;;;8.30;99.90;;;;;;4955104;28;20475;-69
2022/02/23 06:11:40;;;;;;;0.45;0.35;;;8.30;99.90;;;;;;4971553;28;20895;-69
2022/02/23 06:14:06;;;;;;;0.40;0.30;;;8.40;99.90;;;;;;4971740;28;20383;-69
2022/02/23 06:16:32;;;;;;;0.40;0.20;;;8.40;99.90;;;;;;4956626;28;20402;-68
2022/02/23 06:18:58;;;;;;;0.40;0.20;;;8.40;99.90;;;;;;4983944;28;20882;-68
2022/02/23 06:21:27;;;;;;;0.40;0.20;;;8.30;99.90;;;;;;4989306;28;20425;-68
2022/02/23 06:23:53;;;;;;;0.40;0.20;;;8.30;99.90;;;;;;4983709;28;20402;-68
2022/02/23 06:26:20;;;;;;;0.40;0.20;;;8.30;99.90;;;;;;4991543;28;20394;-68
2022/02/23 06:28:46;;;;;;;0.60;0.60;;;8.20;99.90;;;;;;4991124;28;20440;-68
2022/02/23 06:31:12;;;;;;;0.40;0.30;;;8.20;99.90;;;;;;4990559;28;20387;-69
2022/02/23 06:33:42;;;;;;;0.40;0.20;;;8.20;99.90;;;;;;4969343;28;20390;-69
2022/02/23 06:36:09;;;;;;;0.40;0.20;;;8.10;99.90;;;;;;4987246;28;20390;-68
2022/02/23 06:38:41;;;;;;;0.40;0.20;;;8.10;99.90;;;;;;4985587;28;20387;-70
2022/02/23 06:41:10;;;;;;;0.40;0.20;;;8.00;99.90;;;;;;4989552;28;20415;-70
2022/02/23 06:43:36;;;;;;;0.50;0.50;;;7.90;99.90;;;;;;4975930;28;20392;-70
2022/02/23 06:46:03;;;;;;;0.40;0.20;;;7.80;99.90;;;;;;4989724;28;20402;-70
2022/02/23 06:48:29;;;;;;;0.40;0.20;;;7.70;99.90;;;;;;4985838;28;20409;-70
2022/02/23 06:50:55;;;;;;;0.80;0.80;;;7.60;99.90;;;;;;4974298;28;20840;-70
2022/02/23 06:53:22;;;;;;;0.40;0.40;;;7.40;99.90;;;;;;4992069;28;20401;-70
2022/02/23 06:55:47;;;;;;;0.40;0.20;;;7.30;99.90;;;;;;4987038;28;20479;-70
2022/02/23 06:58:14;;;;;;;0.70;0.70;;;7.30;99.90;;;;;;4993126;28;20893;-71
2022/02/23 07:00:40;;;;;;;0.40;0.30;;;7.40;99.90;;;;;;4994687;28;20481;-70
2022/02/23 07:03:06;;;;;;;0.40;0.20;;;7.30;99.90;;;;;;4994821;28;20509;-70
2022/02/23 07:05:32;;;;;;;0.40;0.20;;;7.30;99.90;;;;;;4993575;28;20410;-70
2022/02/23 07:08:02;;;;;;;0.40;0.20;;;7.20;99.90;;;;;;4994136;28;20405;-70
2022/02/23 07:10:28;;;;;;;0.40;0.20;;;7.20;99.90;;;;;;4990704;28;20418;-69
2022/02/23 07:12:55;;;;;;;0.40;0.20;;;7.20;99.90;;;;;;4994416;28;20954;-70
2022/02/23 07:15:22;;;;;;;0.40;0.20;;;7.20;99.90;;;;;;4993768;28;20783;-69
2022/02/23 07:17:50;;;;;;;0.40;0.30;;;7.30;99.90;;;;;;4993185;28;20477;-69
2022/02/23 07:20:17;;;;;;;0.90;0.90;;;7.30;99.90;;;;;;4994263;28;20506;-69
2022/02/23 07:22:43;;;;;;;0.40;0.20;;;7.20;99.90;;;;;;4993603;28;20411;-70
2022/02/23 07:25:11;;;;;;;0.40;0.20;;;7.20;99.90;;;;;;4994492;28;20453;-69
2022/02/23 07:27:37;;;;;;;0.40;0.25;;;7.30;99.90;;;;;;4993603;28;20394;-69
2022/02/23 07:30:05;;;;;;;1.50;0.90;;;7.30;99.90;;;;;;4977420;28;20417;-69
2022/02/23 07:32:32;;;;;;;0.40;0.20;;;7.40;99.90;;;;;;4994439;28;20386;-69
2022/02/23 07:34:59;;;;;;;0.40;0.20;;;7.40;99.90;;;;;;4977058;28;20453;-69
2022/02/23 07:37:26;;;;;;;0.50;0.50;;;7.40;99.90;;;;;;4988702;28;20391;-69
2022/02/23 07:39:55;;;;;;;0.40;0.20;;;7.40;99.90;;;;;;4993240;28;20386;-69
2022/02/23 07:42:22;;;;;;;0.40;0.20;;;7.40;99.90;;;;;;4994185;28;20415;-69
2022/02/23 07:44:48;;;;;;;0.40;0.30;;;7.50;99.90;;;;;;4975601;28;20410;-70
2022/02/23 07:47:15;;;;;;;0.40;0.20;;;7.60;99.90;;;;;;4993114;28;20477;-69
2022/02/23 07:49:41;;;;;;;0.40;0.20;;;7.60;99.90;;;;;;4994030;28;20728;-69
2022/02/23 07:52:07;;;;;;;0.60;0.60;;;7.50;99.90;;;;;;4975501;28;20410;-70
2022/02/23 07:54:33;;;;;;;0.40;0.40;;;7.50;99.90;;;;;;4993882;28;20391;-70
2022/02/23 07:56:59;;;;;;;0.60;0.60;;;7.60;99.90;;;;;;4992426;28;20483;-70
2022/02/23 07:59:25;;;;;;;0.40;0.20;;;7.60;99.90;;;;;;4993928;28;20394;-69
2022/02/23 08:01:51;;;;;;;0.40;0.20;;;7.60;99.90;;;;;;4993173;28;20410;-69
2022/02/23 08:04:20;;;;;;;0.40;0.20;;;7.60;99.90;;;;;;4960221;28;20469;-69
2022/02/23 08:06:46;;;;;;;0.40;0.20;;;7.70;99.90;;;;;;4993698;28;20394;-70
2022/02/23 08:09:12;;;;;;;0.40;0.20;;;7.70;99.90;;;;;;4993570;28;20378;-69
2022/02/23 08:11:39;;;;;;;0.40;0.30;;;7.80;99.90;;;;;;4993154;28;20425;-69
2022/02/23 08:14:08;;;;;;;0.40;0.20;;;7.80;99.90;;;;;;4992614;28;20394;-70
2022/02/23 08:19:34;;;;;;;0.80;0.80;;;7.90;99.90;;;;;;4992740;28;20550;-69
2022/02/23 08:22:05;;;;;;;0.40;0.20;;;8.00;99.90;;;;;;4993533;28;20425;-69
2022/02/23 08:24:34;;;;;;;0.40;0.40;;;7.90;99.90;;;;;;4988996;28;20399;-70
2022/02/23 08:27:01;;;;;;;0.40;0.30;;;8.00;99.90;;;;;;4992997;28;20437;-69
2022/02/23 08:29:27;;;;;;;0.40;0.20;;;8.10;99.90;;;;;;4992587;28;20401;-69
2022/02/23 08:31:54;;;;;;;0.40;0.30;;;8.10;99.90;;;;;;4992649;28;20485;-69
2022/02/23 08:34:20;;;;;;;0.40;0.20;;;8.20;99.90;;;;;;4974936;28;20436;-70
2022/02/23 08:36:47;;;;;;;0.40;0.20;;;8.30;99.90;;;;;;4993090;28;20482;-70
2022/02/23 08:39:14;;;;;;;0.40;0.20;;;8.30;99.90;;;;;;4992535;28;20394;-70
2022/02/23 08:41:39;;;;;;;0.80;0.70;;;8.40;99.90;;;;;;4992734;28;20414;-70
2022/02/23 08:44:07;;;;;;;0.40;0.23;;;8.40;99.90;;;;;;4992521;28;20453;-70
2022/02/23 08:46:36;;;;;;;0.40;0.20;;;8.50;99.90;;;;;;4992239;28;20490;-69
2022/02/23 08:49:03;;;;;;;0.40;0.20;;;8.50;99.90;;;;;;4992789;28;20398;-70
2022/02/23 08:51:29;;;;;;;0.40;0.30;;;8.50;99.90;;;;;;4992237;28;20399;-69
2022/02/23 08:53:55;;;;;;;0.63;0.63;;;8.60;99.90;;;;;;4992562;28;20386;-69
2022/02/23 08:56:21;;;;;;;0.80;0.70;;;8.70;99.90;;;;;;4992955;28;20382;-70
2022/02/23 08:58:47;;;;;;;0.40;0.20;;;8.90;99.90;;;;;;4992526;28;20379;-70
2022/02/23 09:01:12;;;;;;;0.40;0.20;;;8.90;99.90;;;;;;4992602;28;20847;-69
2022/02/23 09:03:38;;;;;;;0.40;0.40;;;9.00;99.90;;;;;;4990463;28;20701;-69
2022/02/23 09:06:04;;;;;;;0.40;0.40;;;9.00;99.90;;;;;;4992815;28;20394;-69
2022/02/23 09:08:30;;;;;;;0.40;0.20;;;9.10;99.90;;;;;;4992140;28;20445;-69
2022/02/23 09:10:56;;;;;;;0.40;0.20;;;9.10;99.90;;;;;;4991697;28;20496;-69
2022/02/23 09:13:22;;;;;;;0.40;0.30;;;9.20;99.90;;;;;;4992496;28;20397;-70
2022/02/23 09:15:47;;;;;;;0.40;0.20;;;9.20;99.90;;;;;;4991748;28;20379;-70
2022/02/23 09:18:13;;;;;;;0.40;0.20;;;9.10;99.90;;;;;;4992114;28;20751;-70
2022/02/23 09:20:39;;;;;;;0.40;0.20;;;9.10;99.90;;;;;;4991897;28;20546;-70
2022/02/23 09:23:05;;;;;;;0.40;0.20;;;9.10;99.90;;;;;;4991786;28;20450;-70
2022/02/23 09:25:32;;;;;;;0.60;0.60;;;9.10;99.90;;;;;;4992264;28;20407;-69
2022/02/23 09:27:57;;;;;;;0.40;0.20;;;9.10;99.90;;;;;;4991135;28;20386;-69
2022/02/23 09:30:23;;;;;;;0.40;0.20;;;9.10;99.90;;;;;;4974520;28;20406;-69
2022/02/23 09:32:49;;;;;;;0.40;0.30;;;9.10;99.90;;;;;;4991141;28;20402;-70
2022/02/23 09:35:18;;;;;;;0.40;0.20;;;9.20;99.90;;;;;;4992214;28;20399;-70
2022/02/23 09:37:44;;;;;;;0.40;0.20;;;9.40;99.90;;;;;;4992021;28;20390;-70
2022/02/23 09:40:13;;;;;;;0.40;0.30;;;9.60;99.90;;;;;;4991339;28;20390;-70
2022/02/23 09:42:39;;;;;;;0.50;0.50;;;9.60;99.90;;;;;;4991998;28;20974;-70
2022/02/23 09:45:06;;;;;;;0.40;0.30;;;9.70;99.90;;;;;;4991003;28;20482;-70
2022/02/23 09:47:33;;;;;;;0.40;0.30;;;9.90;99.90;;;;;;4991902;28;20390;-70
2022/02/23 09:50:00;;;;;;;0.40;0.30;;;10.00;99.90;;;;;;4991247;28;20395;-70
2022/02/23 09:52:26;;;;;;;0.40;0.20;;;10.20;99.90;;;;;;4974374;28;20920;-70
2022/02/23 09:54:57;;;;;;;0.40;0.20;;;10.40;99.90;;;;;;4974468;28;20379;-69
2022/02/23 09:57:23;;;;;;;0.40;0.20;;;10.60;99.90;;;;;;4973534;28;20426;-70
2022/02/23 09:59:49;;;;;;;0.40;0.20;;;10.70;99.90;;;;;;4991544;28;20388;-69
2022/02/23 10:02:15;;;;;;;0.40;0.20;;;11.00;99.90;;;;;;4990501;28;20453;-69
2022/02/23 10:04:42;;;;;;;2.20;0.60;;;11.10;99.90;;;;;;4991565;28;20398;-69
2022/02/23 10:07:08;;;;;;;0.40;0.20;;;11.20;99.90;;;;;;4991487;28;20410;-69
2022/02/23 10:09:49;;;;;;;0.40;0.20;;;10.90;99.90;;;;;;4991384;28;20397;-69
2022/02/23 10:12:19;;;;;;;0.40;0.20;;;11.00;99.90;;;;;;4990989;28;20418;-70
2022/02/23 10:14:47;;;;;;;0.40;0.20;;;11.10;99.90;;;;;;4991141;28;20748;-69
2022/02/23 10:17:13;;;;;;;0.40;0.20;;;11.10;99.90;;;;;;4974316;28;20466;-69
2022/02/23 10:19:54;;;;;;;0.40;0.20;;;11.10;99.90;;;;;;4990273;28;20386;-69
2022/02/23 10:22:23;;;;;;;0.40;0.20;;;11.30;99.90;;;;;;4990878;28;20422;-69
2022/02/23 10:24:49;;;;;;;0.40;0.40;;;11.40;99.90;;;;;;4991165;28;20398;-69
2022/02/23 10:27:17;;;;;;;0.40;0.30;;;11.60;99.90;;;;;;4991123;28;20474;-71
2022/02/23 10:29:58;;;;;;;0.70;0.50;;;11.70;99.90;;;;;;4973124;28;20550;-70
2022/02/23 10:32:25;;;;;;;0.40;0.30;;;11.60;99.90;;;;;;4990932;28;20416;-70
2022/02/23 10:34:53;;;;;;;0.40;0.20;;;11.40;99.90;;;;;;4991546;28;20405;-70
2022/02/23 10:37:21;;;;;;;3.10;1.00;;;11.40;99.90;;;;;;4991813;28;20501;-70
2022/02/23 10:39:57;;;;;;;0.40;0.20;;;11.20;99.90;;;;;;4990227;28;20430;-70
2022/02/23 10:42:26;;;;;;;0.40;0.20;;;11.30;99.90;;;;;;4991277;28;20977;-70
2022/02/23 10:44:54;;;;;;;0.40;0.30;;;11.40;99.90;;;;;;4990122;28;20522;-70
2022/02/23 10:47:22;;;;;;;0.40;0.20;;;11.10;99.90;;;;;;4991316;28;20398;-70
2022/02/23 10:50:28;;;;;;;0.40;0.40;;;11.00;99.90;;;;;;4990328;28;20402;-70
2022/02/23 10:52:56;;;;;;;0.40;0.20;;;10.90;99.90;;;;;;4911501;29;21056;-71
2022/02/23 10:55:31;;;;;;;0.40;0.20;;;10.80;99.90;;;;;;4912000;29;20436;-70
2022/02/23 10:58:02;;;;;;;0.40;0.20;;;10.80;99.90;;;;;;4954792;28;20448;-70
2022/02/23 11:00:36;;;;;;;0.40;0.30;;;10.70;99.90;;;;;;4990932;28;20386;-70
2022/02/23 11:03:02;;;;;;;0.40;0.30;;;10.90;99.90;;;;;;4989780;28;20423;-70
2022/02/23 11:05:31;;;;;;;0.40;0.20;;;11.20;99.90;;;;;;4990953;28;20472;-69
2022/02/23 11:08:01;;;;;;;0.40;0.20;;;11.60;99.90;;;;;;4990159;28;20396;-69
2022/02/23 11:10:27;;;;;;;0.40;0.25;;;11.50;99.90;;;;;;4973692;28;20424;-69
2022/02/23 11:12:56;;;;;;;0.98;0.57;;;11.30;99.90;;;;;;4989982;28;20497;-69
2022/02/23 11:15:24;;;;;;;0.40;0.20;;;11.20;99.90;;;;;;4990884;28;20461;-68
2022/02/23 11:17:55;;;;;;;0.40;0.30;;;11.20;99.90;;;;;;4972849;28;20452;-69
2022/02/23 11:20:31;;;;;;;0.40;0.20;;;11.20;99.90;;;;;;4991006;28;20398;-69
2022/02/23 11:23:02;;;;;;;0.40;0.20;;;11.40;99.90;;;;;;4990174;28;20464;-69
2022/02/23 11:25:39;;;;;;;0.40;0.30;;;11.70;99.90;;;;;;4991714;28;20454;-69
2022/02/23 11:28:05;;;;;;;0.40;0.30;;;12.00;99.90;;;;;;4976391;28;20818;-69
2022/02/23 11:30:31;;;;;;;0.40;0.20;;;11.70;99.90;;;;;;4994567;28;20386;-69
2022/02/23 11:32:59;;;;;;;0.40;0.20;;;12.00;99.90;;;;;;4993034;28;20398;-69
2022/02/23 11:35:58;;;;;;;0.40;0.30;;;12.00;99.90;;;;;;4994280;28;20792;-69
2022/02/23 11:38:28;;;;;;;0.40;0.20;;;12.10;99.90;;;;;;4951929;28;20399;-68
2022/02/23 11:40:57;;;;;;;0.60;0.40;;;12.50;99.90;;;;;;4994084;28;20890;-69
2022/02/23 11:43:27;;;;;;;0.60;0.60;;;13.40;99.90;;;;;;4994183;28;20474;-69
2022/02/23 11:46:12;;;;;;;0.40;0.20;;;14.50;96.70;;;;;;4993514;28;20413;-69
2022/02/23 11:48:59;;;;;;;0.40;0.20;;;14.50;96.30;;;;;;4994356;28;20398;-69
2022/02/23 11:51:44;;;;;;;0.50;0.40;;;14.90;95.20;;;;;;4993349;28;20417;-69
2022/02/23 11:54:36;;;;;;;0.40;0.20;;;15.20;94.70;;;;;;4992895;28;20834;-69
2022/02/23 11:57:02;;;;;;;0.40;0.20;;;14.80;93.10;;;;;;4993790;28;20458;-70
2022/02/23 11:59:58;;;;;;;0.40;0.30;;;13.70;96.00;;;;;;4992613;28;21020;-69
2022/02/23 12:02:30;;;;;;;0.40;0.30;;;13.40;95.50;;;;;;4973709;28;20494;-70
2022/02/23 12:04:56;;;;;;;0.40;0.20;;;12.80;99.20;;;;;;4974349;28;20388;-68
2022/02/23 12:07:23;;;;;;;0.40;0.30;;;12.60;99.40;;;;;;4973488;28;20544;-68
2022/02/23 12:09:58;;;;;;;0.40;0.20;;;13.60;98.10;;;;;;4974586;28;20398;-68
2022/02/23 12:12:52;;;;;;;0.40;0.20;;;14.10;96.40;;;;;;4973741;28;20420;-68
2022/02/23 12:15:39;;;;;;;0.40;0.20;;;15.00;94.20;;;;;;4974011;28;20419;-70
2022/02/23 12:18:12;;;;;;;0.40;0.20;;;16.00;90.70;;;;;;4974627;28;20500;-70
2022/02/23 12:20:38;;;;;;;0.40;0.20;;;14.60;92.20;;;;;;4973693;28;20447;-70
2022/02/23 12:23:29;;;;;;;0.40;0.20;;;13.90;92.80;;;;;;4990042;28;20410;-70
2022/02/23 12:26:05;;;;;;;0.40;0.20;;;14.20;95.20;;;;;;4993079;28;20474;-70
2022/02/23 12:28:33;;;;;;;0.40;0.20;;;14.10;93.80;;;;;;4992647;28;20391;-69
2022/02/23 12:31:05;;;;;;;0.90;0.70;;;13.70;95.20;;;;;;4993617;28;20391;-70
2022/02/23 12:33:31;;;;;;;0.50;0.40;;;14.20;95.50;;;;;;4992588;28;20409;-69
2022/02/23 12:36:01;;;;;;;0.40;0.30;;;13.30;94.10;;;;;;4992884;28;20419;-70
2022/02/23 12:38:32;;;;;;;0.80;0.80;;;13.60;95.60;;;;;;4992506;28;20394;-70
2022/02/23 12:40:59;;;;;;;0.40;0.20;;;13.70;93.70;;;;;;4992790;28;20387;-70
2022/02/23 12:43:26;;;;;;;0.40;0.40;;;14.30;92.40;;;;;;4993191;28;20398;-71
2022/02/23 12:45:52;;;;;;;0.40;0.20;;;14.30;91.80;;;;;;4992212;28;20426;-70
2022/02/23 12:48:23;;;;;;;0.40;0.30;;;14.70;90.80;;;;;;4993436;28;20391;-71
2022/02/23 12:50:54;;;;;;;0.40;0.30;;;15.20;91.70;;;;;;4992499;28;20398;-69
2022/02/23 12:53:28;;;;;;;0.40;0.20;;;15.50;89.10;;;;;;4993172;28;20390;-69
2022/02/23 12:55:54;;;;;;;0.40;0.30;;;15.00;88.30;;;;;;4991273;28;20391;-69
2022/02/23 12:58:33;;;;;;;0.40;0.20;;;15.50;88.40;;;;;;4992170;28;20405;-69
2022/02/23 13:00:59;;;;;;;0.70;0.50;;;14.70;90.20;;;;;;4991501;28;20391;-69